sensor_id;sensor_type;location;lat;lon;timestamp;pressure;altitude;pressure_sealevel;temperature;humidity
65897;BME280;52677;50.898;10.854;2023-05-09T00:00:53;98958.91;;;7.23;100.00
65897;BME280;52677;50.898;10.854;2023-05-09T00:02:54;98957.31;;;7.22;100.00
65897;BME280;52677;50.898;10.854;2023-05-09T00:04:55;98953.75;;;7.21;100.00
65897;BME280;52677;50.898;10.854;2023-05-09T00:06:55;98961.22;;;7.21;100.00
65897;BME280;52677;50.898;10.854;2023-05-09T00:08:56;98963.03;;;7.17;100.00
65897;BME280;52677;50.898;10.854;2023-05-09T00:10:56;98963.38;;;7.15;100.00
65897;BME280;52677;50.898;10.854;2023-05-09T00:12:56;98962.00;;;7.09;100.00
65897;BME280;52677;50.898;10.854;2023-05-09T00:14:58;98972.34;;;7.12;100.00
65897;BME280;52677;50.898;10.854;2023-05-09T00:16:58;98958.00;;;7.07;100.00
65897;BME280;52677;50.898;10.854;2023-05-09T00:18:58;98960.63;;;7.03;100.00
65897;BME280;52677;50.898;10.854;2023-05-09T00:20:59;98956.16;;;6.98;100.00
65897;BME280;52677;50.898;10.854;2023-05-09T00:23:01;98953.63;;;6.93;100.00
65897;BME280;52677;50.898;10.854;2023-05-09T00:25:01;98952.25;;;6.87;100.00
65897;BME280;52677;50.898;10.854;2023-05-09T00:27:03;98952.56;;;6.86;100.00
65897;BME280;52677;50.898;10.854;2023-05-09T00:29:03;98950.72;;;6.78;100.00
65897;BME280;52677;50.898;10.854;2023-05-09T00:31:03;98954.06;;;6.71;100.00
65897;BME280;52677;50.898;10.854;2023-05-09T00:33:04;98949.47;;;6.63;100.00
65897;BME280;52677;50.898;10.854;2023-05-09T00:35:06;98955.50;;;6.56;100.00
65897;BME280;52677;50.898;10.854;2023-05-09T00:37:06;98948.63;;;6.50;100.00
65897;BME280;52677;50.898;10.854;2023-05-09T00:39:06;98951.91;;;6.43;100.00
65897;BME280;52677;50.898;10.854;2023-05-09T00:41:07;98946.97;;;6.37;100.00
65897;BME280;52677;50.898;10.854;2023-05-09T00:43:07;98938.25;;;6.35;100.00
65897;BME280;52677;50.898;10.854;2023-05-09T00:45:08;98941.69;;;6.32;100.00
65897;BME280;52677;50.898;10.854;2023-05-09T00:47:08;98935.00;;;6.20;100.00
65897;BME280;52677;50.898;10.854;2023-05-09T00:49:09;98937.03;;;6.11;100.00
65897;BME280;52677;50.898;10.854;2023-05-09T00:51:11;98935.66;;;6.05;100.00
65897;BME280;52677;50.898;10.854;2023-05-09T00:53:12;98929.53;;;6.00;100.00
65897;BME280;52677;50.898;10.854;2023-05-09T00:55:12;98929.75;;;5.95;100.00
65897;BME280;52677;50.898;10.854;2023-05-09T00:57:14;98922.97;;;5.92;100.00
65897;BME280;52677;50.898;10.854;2023-05-09T00:59:14;98925.72;;;5.92;100.00
65897;BME280;52677;50.898;10.854;2023-05-09T01:01:15;98912.81;;;5.93;100.00
65897;BME280;52677;50.898;10.854;2023-05-09T01:03:16;98917.94;;;5.94;100.00
65897;BME280;52677;50.898;10.854;2023-05-09T01:05:17;98917.94;;;5.94;100.00
65897;BME280;52677;50.898;10.854;2023-05-09T01:07:28;98913.59;;;5.93;100.00
65897;BME280;52677;50.898;10.854;2023-05-09T01:09:52;98907.16;;;5.89;100.00
65897;BME280;52677;50.898;10.854;2023-05-09T01:14:32;98906.78;;;5.99;100.00
65897;BME280;52677;50.898;10.854;2023-05-09T01:16:48;98902.41;;;5.98;100.00
65897;BME280;52677;50.898;10.854;2023-05-09T01:21:27;98901.66;;;5.89;100.00
65897;BME280;52677;50.898;10.854;2023-05-09T01:25:37;98898.38;;;5.96;100.00
65897;BME280;52677;50.898;10.854;2023-05-09T01:30:15;98901.63;;;5.98;100.00
65897;BME280;52677;50.898;10.854;2023-05-09T01:32:18;98899.41;;;5.91;100.00
65897;BME280;52677;50.898;10.854;2023-05-09T01:34:25;98896.03;;;5.85;100.00
65897;BME280;52677;50.898;10.854;2023-05-09T01:36:29;98900.25;;;5.83;100.00
65897;BME280;52677;50.898;10.854;2023-05-09T01:38:33;98902.28;;;5.74;100.00
65897;BME280;52677;50.898;10.854;2023-05-09T01:40:37;98896.06;;;5.64;100.00
65897;BME280;52677;50.898;10.854;2023-05-09T01:42:42;98890.94;;;5.54;100.00
65897;BME280;52677;50.898;10.854;2023-05-09T01:44:45;98890.69;;;5.47;100.00
65897;BME280;52677;50.898;10.854;2023-05-09T01:46:46;98886.19;;;5.43;100.00
65897;BME280;52677;50.898;10.854;2023-05-09T01:48:48;98893.50;;;5.39;100.00
65897;BME280;52677;50.898;10.854;2023-05-09T01:50:49;98881.75;;;5.29;100.00
65897;BME280;52677;50.898;10.854;2023-05-09T01:52:52;98890.06;;;5.21;100.00
65897;BME280;52677;50.898;10.854;2023-05-09T01:54:54;98901.41;;;5.11;100.00
65897;BME280;52677;50.898;10.854;2023-05-09T01:56:56;98891.44;;;5.06;100.00
65897;BME280;52677;50.898;10.854;2023-05-09T01:58:59;98895.34;;;5.05;100.00
65897;BME280;52677;50.898;10.854;2023-05-09T02:01:01;98890.97;;;5.04;100.00
65897;BME280;52677;50.898;10.854;2023-05-09T02:03:02;98885.63;;;5.07;100.00
65897;BME280;52677;50.898;10.854;2023-05-09T02:05:04;98885.63;;;5.07;100.00
65897;BME280;52677;50.898;10.854;2023-05-09T02:07:05;98885.28;;;5.09;100.00
65897;BME280;52677;50.898;10.854;2023-05-09T02:09:07;98881.28;;;5.06;100.00
65897;BME280;52677;50.898;10.854;2023-05-09T02:11:07;98881.63;;;5.05;100.00
65897;BME280;52677;50.898;10.854;2023-05-09T02:13:07;98888.09;;;5.00;100.00
65897;BME280;52677;50.898;10.854;2023-05-09T02:15:08;98886.28;;;5.04;100.00
65897;BME280;52677;50.898;10.854;2023-05-09T02:17:09;98879.81;;;5.09;100.00
65897;BME280;52677;50.898;10.854;2023-05-09T02:19:10;98879.75;;;5.18;100.00
65897;BME280;52677;50.898;10.854;2023-05-09T02:21:10;98876.66;;;5.19;100.00
65897;BME280;52677;50.898;10.854;2023-05-09T02:23:11;98886.66;;;5.24;100.00
65897;BME280;52677;50.898;10.854;2023-05-09T02:25:12;98873.06;;;5.27;100.00
65897;BME280;52677;50.898;10.854;2023-05-09T02:27:16;98874.81;;;5.32;100.00
65897;BME280;52677;50.898;10.854;2023-05-09T02:29:19;98878.72;;;5.31;100.00
65897;BME280;52677;50.898;10.854;2023-05-09T02:31:23;98879.84;;;5.30;100.00
65897;BME280;52677;50.898;10.854;2023-05-09T02:33:25;98882.59;;;5.30;100.00
65897;BME280;52677;50.898;10.854;2023-05-09T02:35:26;98877.41;;;5.28;100.00
65897;BME280;52677;50.898;10.854;2023-05-09T02:37:28;98881.63;;;5.26;100.00
65897;BME280;52677;50.898;10.854;2023-05-09T02:39:28;98880.22;;;5.20;100.00
65897;BME280;52677;50.898;10.854;2023-05-09T02:41:29;98881.34;;;5.19;100.00
65897;BME280;52677;50.898;10.854;2023-05-09T02:43:29;98874.78;;;5.11;100.00
65897;BME280;52677;50.898;10.854;2023-05-09T02:45:30;98885.63;;;5.07;100.00
65897;BME280;52677;50.898;10.854;2023-05-09T02:47:31;98882.94;;;4.99;100.00
65897;BME280;52677;50.898;10.854;2023-05-09T02:49:32;98883.31;;;4.89;100.00
65897;BME280;52677;50.898;10.854;2023-05-09T02:51:33;98880.41;;;4.85;100.00
65897;BME280;52677;50.898;10.854;2023-05-09T02:53:33;98880.34;;;4.73;100.00
65897;BME280;52677;50.898;10.854;2023-05-09T02:55:33;98884.50;;;4.70;100.00
65897;BME280;52677;50.898;10.854;2023-05-09T02:57:34;98882.44;;;4.67;100.00
65897;BME280;52677;50.898;10.854;2023-05-09T02:59:34;98879.41;;;4.60;100.00
65897;BME280;52677;50.898;10.854;2023-05-09T03:01:35;98878.13;;;4.58;100.00
65897;BME280;52677;50.898;10.854;2023-05-09T03:03:35;98876.38;;;4.53;100.00
65897;BME280;52677;50.898;10.854;2023-05-09T03:05:37;98867.84;;;4.46;100.00
65897;BME280;52677;50.898;10.854;2023-05-09T03:07:37;98871.59;;;4.41;100.00
65897;BME280;52677;50.898;10.854;2023-05-09T03:09:37;98871.13;;;4.39;100.00
65897;BME280;52677;50.898;10.854;2023-05-09T03:11:38;98871.63;;;4.33;100.00
65897;BME280;52677;50.898;10.854;2023-05-09T03:13:38;98876.09;;;4.37;100.00
65897;BME280;52677;50.898;10.854;2023-05-09T03:15:38;98866.44;;;4.40;100.00
65897;BME280;52677;50.898;10.854;2023-05-09T03:17:38;98869.97;;;4.40;100.00
65897;BME280;52677;50.898;10.854;2023-05-09T03:19:39;98872.38;;;4.42;100.00
65897;BME280;52677;50.898;10.854;2023-05-09T03:21:39;98867.41;;;4.35;100.00
65897;BME280;52677;50.898;10.854;2023-05-09T03:23:40;98870.81;;;4.32;100.00
65897;BME280;52677;50.898;10.854;2023-05-09T03:25:40;98864.53;;;4.32;100.00
65897;BME280;52677;50.898;10.854;2023-05-09T03:27:41;98864.03;;;4.30;100.00
65897;BME280;52677;50.898;10.854;2023-05-09T03:29:41;98858.09;;;4.28;100.00
65897;BME280;52677;50.898;10.854;2023-05-09T03:31:41;98860.03;;;4.27;100.00
65897;BME280;52677;50.898;10.854;2023-05-09T03:33:42;98854.75;;;4.22;100.00
65897;BME280;52677;50.898;10.854;2023-05-09T03:35:42;98860.03;;;4.18;100.00
65897;BME280;52677;50.898;10.854;2023-05-09T03:37:42;98867.97;;;4.11;100.00
65897;BME280;52677;50.898;10.854;2023-05-09T03:39:43;98861.88;;;4.06;100.00
65897;BME280;52677;50.898;10.854;2023-05-09T03:41:43;98852.34;;;4.03;100.00
65897;BME280;52677;50.898;10.854;2023-05-09T03:43:44;98851.72;;;4.06;100.00
65897;BME280;52677;50.898;10.854;2023-05-09T03:45:44;98841.88;;;4.05;100.00
65897;BME280;52677;50.898;10.854;2023-05-09T03:47:45;98836.38;;;4.05;100.00
65897;BME280;52677;50.898;10.854;2023-05-09T03:49:45;98841.06;;;4.05;100.00
65897;BME280;52677;50.898;10.854;2023-05-09T03:51:45;98844.31;;;4.07;100.00
65897;BME280;52677;50.898;10.854;2023-05-09T03:53:46;98841.88;;;3.97;100.00
65897;BME280;52677;50.898;10.854;2023-05-09T03:55:46;98843.19;;;3.99;100.00
65897;BME280;52677;50.898;10.854;2023-05-09T03:57:47;98845.13;;;3.99;100.00
65897;BME280;52677;50.898;10.854;2023-05-09T03:59:47;98847.06;;;3.98;100.00
65897;BME280;52677;50.898;10.854;2023-05-09T04:01:47;98834.81;;;3.95;100.00
65897;BME280;52677;50.898;10.854;2023-05-09T04:03:48;98841.88;;;3.97;100.00
65897;BME280;52677;50.898;10.854;2023-05-09T04:05:49;98836.59;;;4.00;100.00
65897;BME280;52677;50.898;10.854;2023-05-09T04:07:49;98845.94;;;3.99;100.00
65897;BME280;52677;50.898;10.854;2023-05-09T04:09:50;98849.16;;;4.01;100.00
65897;BME280;52677;50.898;10.854;2023-05-09T04:11:50;98847.50;;;4.09;100.00
65897;BME280;52677;50.898;10.854;2023-05-09T04:13:50;98843.78;;;4.13;100.00
65897;BME280;52677;50.898;10.854;2023-05-09T04:15:51;98836.66;;;4.21;100.00
65897;BME280;52677;50.898;10.854;2023-05-09T04:17:51;98845.06;;;4.25;100.00
65897;BME280;52677;50.898;10.854;2023-05-09T04:19:51;98841.66;;;4.28;100.00
65897;BME280;52677;50.898;10.854;2023-05-09T04:21:52;98851.97;;;4.31;100.00
65897;BME280;52677;50.898;10.854;2023-05-09T04:23:52;98850.16;;;4.35;100.00
65897;BME280;52677;50.898;10.854;2023-05-09T04:25:52;98851.44;;;4.37;100.00
65897;BME280;52677;50.898;10.854;2023-05-09T04:27:53;98847.41;;;4.43;100.00
65897;BME280;52677;50.898;10.854;2023-05-09T04:29:53;98847.69;;;4.50;100.00
65897;BME280;52677;50.898;10.854;2023-05-09T04:31:54;98857.00;;;4.58;100.00
65897;BME280;52677;50.898;10.854;2023-05-09T04:33:54;98851.03;;;4.65;100.00
65897;BME280;52677;50.898;10.854;2023-05-09T04:35:57;98849.22;;;4.69;100.00
65897;BME280;52677;50.898;10.854;2023-05-09T04:37:57;98854.06;;;4.72;100.00
65897;BME280;52677;50.898;10.854;2023-05-09T04:39:58;98845.28;;;4.78;100.00
65897;BME280;52677;50.898;10.854;2023-05-09T04:41:58;98845.44;;;4.82;100.00
65897;BME280;52677;50.898;10.854;2023-05-09T04:43:58;98858.16;;;4.87;100.00
65897;BME280;52677;50.898;10.854;2023-05-09T04:45:58;98847.47;;;4.94;100.00
65897;BME280;52677;50.898;10.854;2023-05-09T04:47:59;98853.25;;;5.01;100.00
65897;BME280;52677;50.898;10.854;2023-05-09T04:49:59;98847.22;;;5.07;100.00
65897;BME280;52677;50.898;10.854;2023-05-09T04:52:00;98847.19;;;5.16;100.00
65897;BME280;52677;50.898;10.854;2023-05-09T04:54:00;98844.72;;;5.23;100.00
65897;BME280;52677;50.898;10.854;2023-05-09T04:56:00;98845.91;;;5.34;100.00
65897;BME280;52677;50.898;10.854;2023-05-09T04:58:01;98838.06;;;5.45;100.00
65897;BME280;52677;50.898;10.854;2023-05-09T05:00:01;98846.72;;;5.56;100.00
65897;BME280;52677;50.898;10.854;2023-05-09T05:02:02;98848.34;;;5.69;100.00
65897;BME280;52677;50.898;10.854;2023-05-09T05:04:37;98842.13;;;5.81;100.00
65897;BME280;52677;50.898;10.854;2023-05-09T05:06:38;98837.84;;;5.92;100.00
65897;BME280;52677;50.898;10.854;2023-05-09T05:08:38;98838.69;;;6.05;100.00
65897;BME280;52677;50.898;10.854;2023-05-09T05:10:38;98832.06;;;6.18;100.00
65897;BME280;52677;50.898;10.854;2023-05-09T05:12:39;98824.66;;;6.31;100.00
65897;BME280;52677;50.898;10.854;2023-05-09T05:14:39;98818.03;;;6.44;100.00
65897;BME280;52677;50.898;10.854;2023-05-09T05:16:39;98818.50;;;6.58;100.00
65897;BME280;52677;50.898;10.854;2023-05-09T05:18:40;98825.94;;;6.70;100.00
65897;BME280;52677;50.898;10.854;2023-05-09T05:20:41;98823.66;;;6.84;100.00
65897;BME280;52677;50.898;10.854;2023-05-09T05:22:41;98817.34;;;6.96;100.00
65897;BME280;52677;50.898;10.854;2023-05-09T05:24:41;98812.16;;;7.07;100.00
65897;BME280;52677;50.898;10.854;2023-05-09T05:26:42;98810.09;;;7.16;100.00
65897;BME280;52677;50.898;10.854;2023-05-09T05:28:42;98803.66;;;7.24;100.00
65897;BME280;52677;50.898;10.854;2023-05-09T05:30:42;98811.06;;;7.36;100.00
65897;BME280;52677;50.898;10.854;2023-05-09T05:32:43;98810.31;;;7.51;100.00
65897;BME280;52677;50.898;10.854;2023-05-09T05:34:43;98799.97;;;7.60;100.00
65897;BME280;52677;50.898;10.854;2023-05-09T05:36:43;98796.25;;;7.68;100.00
65897;BME280;52677;50.898;10.854;2023-05-09T05:38:44;98789.47;;;7.78;100.00
65897;BME280;52677;50.898;10.854;2023-05-09T05:40:44;98800.78;;;7.88;100.00
65897;BME280;52677;50.898;10.854;2023-05-09T05:42:44;98798.66;;;7.98;100.00
65897;BME280;52677;50.898;10.854;2023-05-09T05:44:45;98798.13;;;8.08;100.00
65897;BME280;52677;50.898;10.854;2023-05-09T05:46:46;98797.59;;;8.18;100.00
65897;BME280;52677;50.898;10.854;2023-05-09T05:48:46;98794.53;;;8.35;100.00
65897;BME280;52677;50.898;10.854;2023-05-09T05:50:46;98794.88;;;8.50;100.00
65897;BME280;52677;50.898;10.854;2023-05-09T05:52:46;98788.50;;;8.61;100.00
65897;BME280;52677;50.898;10.854;2023-05-09T05:54:47;98785.63;;;8.73;100.00
65897;BME280;52677;50.898;10.854;2023-05-09T05:56:48;98789.50;;;8.88;100.00
65897;BME280;52677;50.898;10.854;2023-05-09T05:58:48;98789.38;;;9.00;100.00
65897;BME280;52677;50.898;10.854;2023-05-09T06:00:50;98777.44;;;9.12;100.00
65897;BME280;52677;50.898;10.854;2023-05-09T06:02:51;98780.94;;;9.28;100.00
65897;BME280;52677;50.898;10.854;2023-05-09T06:04:51;98784.28;;;9.38;100.00
65897;BME280;52677;50.898;10.854;2023-05-09T06:06:52;98776.22;;;9.48;100.00
65897;BME280;52677;50.898;10.854;2023-05-09T06:08:52;98776.00;;;9.57;100.00
65897;BME280;52677;50.898;10.854;2023-05-09T06:10:53;98775.88;;;9.69;100.00
65897;BME280;52677;50.898;10.854;2023-05-09T06:12:53;98772.88;;;9.78;100.00
65897;BME280;52677;50.898;10.854;2023-05-09T06:14:53;98767.91;;;9.87;100.00
65897;BME280;52677;50.898;10.854;2023-05-09T06:16:54;98768.91;;;9.98;100.00
65897;BME280;52677;50.898;10.854;2023-05-09T06:18:54;98761.97;;;10.08;100.00
65897;BME280;52677;50.898;10.854;2023-05-09T06:20:54;98762.50;;;10.17;100.00
65897;BME280;52677;50.898;10.854;2023-05-09T06:22:55;98758.00;;;10.28;100.00
65897;BME280;52677;50.898;10.854;2023-05-09T06:24:55;98761.31;;;10.37;100.00
65897;BME280;52677;50.898;10.854;2023-05-09T06:26:55;98755.97;;;10.48;100.00
65897;BME280;52677;50.898;10.854;2023-05-09T06:28:56;98753.72;;;10.57;100.00
65897;BME280;52677;50.898;10.854;2023-05-09T06:30:56;98753.84;;;10.64;100.00
65897;BME280;52677;50.898;10.854;2023-05-09T06:32:56;98749.22;;;10.72;100.00
65897;BME280;52677;50.898;10.854;2023-05-09T06:34:57;98754.06;;;10.79;100.00
65897;BME280;52677;50.898;10.854;2023-05-09T06:36:57;98747.84;;;10.85;100.00
65897;BME280;52677;50.898;10.854;2023-05-09T06:38:58;98743.63;;;10.95;100.00
65897;BME280;52677;50.898;10.854;2023-05-09T06:40:58;98746.97;;;11.08;100.00
65897;BME280;52677;50.898;10.854;2023-05-09T06:42:58;98748.25;;;11.14;100.00
65897;BME280;52677;50.898;10.854;2023-05-09T06:44:58;98737.97;;;11.14;100.00
65897;BME280;52677;50.898;10.854;2023-05-09T06:46:59;98737.66;;;11.23;100.00
65897;BME280;52677;50.898;10.854;2023-05-09T06:49:00;98731.91;;;11.35;100.00
65897;BME280;52677;50.898;10.854;2023-05-09T06:51:01;98727.31;;;11.50;100.00
65897;BME280;52677;50.898;10.854;2023-05-09T06:53:02;98725.91;;;11.63;100.00
65897;BME280;52677;50.898;10.854;2023-05-09T06:55:02;98722.81;;;11.72;100.00
65897;BME280;52677;50.898;10.854;2023-05-09T06:57:03;98713.78;;;11.78;100.00
65897;BME280;52677;50.898;10.854;2023-05-09T06:59:03;98718.72;;;11.92;100.00
65897;BME280;52677;50.898;10.854;2023-05-09T07:01:04;98710.09;;;12.01;100.00
65897;BME280;52677;50.898;10.854;2023-05-09T07:03:04;98709.00;;;12.13;100.00
65897;BME280;52677;50.898;10.854;2023-05-09T07:05:08;98710.31;;;12.26;100.00
65897;BME280;52677;50.898;10.854;2023-05-09T07:07:08;98704.50;;;12.42;100.00
65897;BME280;52677;50.898;10.854;2023-05-09T07:09:09;98705.41;;;12.60;100.00
65897;BME280;52677;50.898;10.854;2023-05-09T07:11:10;98709.44;;;12.70;100.00
65897;BME280;52677;50.898;10.854;2023-05-09T07:13:10;98707.13;;;12.82;100.00
65897;BME280;52677;50.898;10.854;2023-05-09T07:15:10;98704.03;;;12.94;100.00
65897;BME280;52677;50.898;10.854;2023-05-09T07:17:11;98702.91;;;13.03;100.00
65897;BME280;52677;50.898;10.854;2023-05-09T07:19:11;98699.75;;;13.11;100.00
65897;BME280;52677;50.898;10.854;2023-05-09T07:21:11;98692.22;;;13.15;100.00
65897;BME280;52677;50.898;10.854;2023-05-09T07:23:12;98702.66;;;13.26;100.00
65897;BME280;52677;50.898;10.854;2023-05-09T07:25:12;98704.28;;;13.34;100.00
65897;BME280;52677;50.898;10.854;2023-05-09T07:27:12;98699.94;;;13.43;100.00
65897;BME280;52677;50.898;10.854;2023-05-09T07:29:13;98701.91;;;13.46;99.65
65897;BME280;52677;50.898;10.854;2023-05-09T07:31:13;98698.34;;;13.46;98.17
65897;BME280;52677;50.898;10.854;2023-05-09T07:33:14;98691.19;;;13.48;100.00
65897;BME280;52677;50.898;10.854;2023-05-09T07:35:14;98694.03;;;13.63;100.00
65897;BME280;52677;50.898;10.854;2023-05-09T07:37:14;98686.09;;;13.72;100.00
65897;BME280;52677;50.898;10.854;2023-05-09T07:39:15;98671.84;;;13.84;97.97
65897;BME280;52677;50.898;10.854;2023-05-09T07:41:15;98668.25;;;13.94;100.00
65897;BME280;52677;50.898;10.854;2023-05-09T07:43:16;98663.91;;;14.08;97.63
65897;BME280;52677;50.898;10.854;2023-05-09T07:45:16;98659.94;;;14.19;98.31
65897;BME280;52677;50.898;10.854;2023-05-09T07:47:16;98653.56;;;14.33;97.27
65897;BME280;52677;50.898;10.854;2023-05-09T07:49:17;98658.75;;;14.45;97.66
65897;BME280;52677;50.898;10.854;2023-05-09T07:51:17;98653.56;;;14.58;99.51
65897;BME280;52677;50.898;10.854;2023-05-09T07:53:17;98650.78;;;14.61;98.17
65897;BME280;52677;50.898;10.854;2023-05-09T07:55:18;98652.75;;;14.75;98.06
65897;BME280;52677;50.898;10.854;2023-05-09T07:57:18;98646.75;;;14.84;97.52
65897;BME280;52677;50.898;10.854;2023-05-09T07:59:18;98639.53;;;14.94;99.52
65897;BME280;52677;50.898;10.854;2023-05-09T08:01:19;98639.94;;;14.99;97.57
65897;BME280;52677;50.898;10.854;2023-05-09T08:03:19;98634.31;;;15.10;96.58
65897;BME280;52677;50.898;10.854;2023-05-09T08:05:20;98632.69;;;15.20;92.41
65897;BME280;52677;50.898;10.854;2023-05-09T08:07:20;98621.91;;;15.25;90.78
65897;BME280;52677;50.898;10.854;2023-05-09T08:09:20;98601.16;;;15.30;95.33
65897;BME280;52677;50.898;10.854;2023-05-09T08:11:21;98618.25;;;15.35;94.79
65897;BME280;52677;50.898;10.854;2023-05-09T08:13:21;98612.28;;;15.37;93.09
65897;BME280;52677;50.898;10.854;2023-05-09T08:15:22;98610.38;;;15.20;91.03
65897;BME280;52677;50.898;10.854;2023-05-09T08:17:22;98612.38;;;15.19;93.18
65897;BME280;52677;50.898;10.854;2023-05-09T08:19:22;98604.28;;;15.42;91.89
65897;BME280;52677;50.898;10.854;2023-05-09T08:21:25;98609.38;;;15.58;90.72
65897;BME280;52677;50.898;10.854;2023-05-09T08:23:25;98606.97;;;15.64;91.90
65897;BME280;52677;50.898;10.854;2023-05-09T08:25:26;98604.53;;;15.73;91.72
65897;BME280;52677;50.898;10.854;2023-05-09T08:27:26;98601.69;;;15.77;89.79
65897;BME280;52677;50.898;10.854;2023-05-09T08:29:26;98603.66;;;15.80;89.25
65897;BME280;52677;50.898;10.854;2023-05-09T08:31:28;98603.31;;;15.70;87.20
65897;BME280;52677;50.898;10.854;2023-05-09T08:33:28;98589.72;;;15.80;88.95
65897;BME280;52677;50.898;10.854;2023-05-09T08:35:28;98589.22;;;15.92;88.83
65897;BME280;52677;50.898;10.854;2023-05-09T08:37:29;98593.91;;;16.02;87.76
65897;BME280;52677;50.898;10.854;2023-05-09T08:39:29;98586.34;;;16.02;85.73
65897;BME280;52677;50.898;10.854;2023-05-09T08:41:32;98587.50;;;16.09;86.96
65897;BME280;52677;50.898;10.854;2023-05-09T08:43:35;98582.22;;;16.18;84.84
65897;BME280;52677;50.898;10.854;2023-05-09T08:45:45;98582.91;;;16.29;84.54
65897;BME280;52677;50.898;10.854;2023-05-09T08:47:49;98581.25;;;16.35;84.48
65897;BME280;52677;50.898;10.854;2023-05-09T08:49:50;98585.97;;;16.42;86.46
65897;BME280;52677;50.898;10.854;2023-05-09T08:51:51;98574.81;;;16.42;82.61
65897;BME280;52677;50.898;10.854;2023-05-09T08:53:52;98578.28;;;16.53;83.27
65897;BME280;52677;50.898;10.854;2023-05-09T08:55:52;98580.63;;;16.58;81.50
65897;BME280;52677;50.898;10.854;2023-05-09T08:57:53;98576.56;;;16.63;81.14
65897;BME280;52677;50.898;10.854;2023-05-09T08:59:54;98575.69;;;16.73;83.86
65897;BME280;52677;50.898;10.854;2023-05-09T09:01:56;98559.72;;;16.73;82.64
65897;BME280;52677;50.898;10.854;2023-05-09T09:03:56;98560.53;;;16.74;81.48
65897;BME280;52677;50.898;10.854;2023-05-09T09:05:56;98567.75;;;16.68;81.07
65897;BME280;52677;50.898;10.854;2023-05-09T09:07:58;98559.00;;;16.62;79.75
65897;BME280;52677;50.898;10.854;2023-05-09T09:09:59;98554.97;;;16.70;81.70
65897;BME280;52677;50.898;10.854;2023-05-09T09:12:05;98557.22;;;16.82;83.03
65897;BME280;52677;50.898;10.854;2023-05-09T09:14:19;98556.44;;;16.82;82.15
65897;BME280;52677;50.898;10.854;2023-05-09T09:16:23;98555.50;;;16.92;80.98
65897;BME280;52677;50.898;10.854;2023-05-09T09:18:28;98546.97;;;17.03;83.29
65897;BME280;52677;50.898;10.854;2023-05-09T09:20:30;98553.16;;;17.18;81.77
65897;BME280;52677;50.898;10.854;2023-05-09T09:22:33;98537.78;;;17.02;78.41
65897;BME280;52677;50.898;10.854;2023-05-09T09:24:34;98541.66;;;17.12;80.72
65897;BME280;52677;50.898;10.854;2023-05-09T09:26:47;98536.66;;;17.27;83.89
65897;BME280;52677;50.898;10.854;2023-05-09T09:28:48;98542.88;;;17.11;79.30
65897;BME280;52677;50.898;10.854;2023-05-09T09:30:48;98537.28;;;17.11;78.40
65897;BME280;52677;50.898;10.854;2023-05-09T09:32:48;98536.56;;;17.07;78.48
65897;BME280;52677;50.898;10.854;2023-05-09T09:34:49;98535.97;;;17.19;74.20
65897;BME280;52677;50.898;10.854;2023-05-09T09:36:49;98534.22;;;17.29;75.00
65897;BME280;52677;50.898;10.854;2023-05-09T09:38:50;98532.50;;;17.38;77.55
65897;BME280;52677;50.898;10.854;2023-05-09T09:42:51;98512.59;;;17.60;80.85
65897;BME280;52677;50.898;10.854;2023-05-09T09:45:01;98520.81;;;17.71;80.41
65897;BME280;52677;50.898;10.854;2023-05-09T09:47:02;98514.22;;;17.84;76.60
65897;BME280;52677;50.898;10.854;2023-05-09T09:49:02;98508.56;;;17.88;77.55
65897;BME280;52677;50.898;10.854;2023-05-09T09:51:07;98508.72;;;18.01;77.37
65897;BME280;52677;50.898;10.854;2023-05-09T09:53:11;98504.94;;;18.11;76.47
65897;BME280;52677;50.898;10.854;2023-05-09T09:55:12;98498.50;;;18.14;76.06
65897;BME280;52677;50.898;10.854;2023-05-09T09:57:32;98500.19;;;18.08;75.57
65897;BME280;52677;50.898;10.854;2023-05-09T09:59:33;98495.47;;;18.05;74.67
65897;BME280;52677;50.898;10.854;2023-05-09T10:01:34;98492.38;;;18.19;75.18
65897;BME280;52677;50.898;10.854;2023-05-09T10:03:38;98486.44;;;18.17;69.33
65897;BME280;52677;50.898;10.854;2023-05-09T10:05:38;98483.56;;;18.20;73.33
65897;BME280;52677;50.898;10.854;2023-05-09T10:07:40;98482.75;;;18.20;73.08
65897;BME280;52677;50.898;10.854;2023-05-09T10:09:40;98473.44;;;18.27;77.39
65897;BME280;52677;50.898;10.854;2023-05-09T10:11:42;98469.72;;;18.33;75.28
65897;BME280;52677;50.898;10.854;2023-05-09T10:13:44;98464.31;;;18.42;72.89
65897;BME280;52677;50.898;10.854;2023-05-09T10:15:45;98463.75;;;18.51;73.43
65897;BME280;52677;50.898;10.854;2023-05-09T10:17:46;98467.09;;;18.66;76.74
65897;BME280;52677;50.898;10.854;2023-05-09T10:19:48;98458.09;;;18.74;75.47
65897;BME280;52677;50.898;10.854;2023-05-09T10:21:56;98465.22;;;18.79;73.64
65897;BME280;52677;50.898;10.854;2023-05-09T10:23:56;98461.03;;;18.87;71.80
65897;BME280;52677;50.898;10.854;2023-05-09T10:26:23;98454.88;;;18.92;70.19
65897;BME280;52677;50.898;10.854;2023-05-09T10:28:31;98455.41;;;18.87;72.96
65897;BME280;52677;50.898;10.854;2023-05-09T10:30:35;98453.75;;;18.90;73.02
65897;BME280;52677;50.898;10.854;2023-05-09T10:33:02;98440.44;;;18.94;74.15
65897;BME280;52677;50.898;10.854;2023-05-09T10:35:04;98443.06;;;19.01;72.64
65897;BME280;52677;50.898;10.854;2023-05-09T10:37:07;98443.63;;;19.12;68.64
65897;BME280;52677;50.898;10.854;2023-05-09T10:39:07;98438.72;;;19.16;71.01
65897;BME280;52677;50.898;10.854;2023-05-09T10:41:09;98432.94;;;19.23;71.04
65897;BME280;52677;50.898;10.854;2023-05-09T10:43:10;98433.56;;;19.31;71.15
65897;BME280;52677;50.898;10.854;2023-05-09T10:45:11;98427.00;;;19.38;68.20